createdAt,value
2023-05-22T00:01:46.664Z,16.90
2023-05-22T00:04:21.512Z,17.58
2023-05-22T00:06:49.588Z,18.02
2023-05-22T00:09:17.405Z,16.95
2023-05-22T00:11:45.144Z,18.98
2023-05-22T00:14:13.733Z,18.08
2023-05-22T00:16:41.722Z,20.95
2023-05-22T00:19:13.420Z,17.75
2023-05-22T00:21:41.518Z,18.63
2023-05-22T00:24:09.543Z,21.65
2023-05-22T00:26:37.313Z,18.05
2023-05-22T00:29:05.901Z,17.25
2023-05-22T00:31:33.739Z,16.63
2023-05-22T00:34:01.518Z,18.48
2023-05-22T00:36:30.695Z,17.07
2023-05-22T00:38:58.385Z,19.75
2023-05-22T00:41:26.494Z,19.20
2023-05-22T00:43:54.725Z,18.43
2023-05-22T00:46:23.080Z,17.47
2023-05-22T00:48:52.523Z,23.85
2023-05-22T00:51:21.722Z,20.85
2023-05-22T00:53:51.419Z,17.50
2023-05-22T00:56:19.831Z,21.77
2023-05-22T00:58:47.833Z,17.95
2023-05-22T01:01:16.144Z,20.80
2023-05-22T01:03:44.918Z,18.25
2023-05-22T01:06:14.081Z,19.57
2023-05-22T01:08:42.138Z,21.52
2023-05-22T01:11:15.358Z,16.52
2023-05-22T01:13:47.939Z,23.55
2023-05-22T01:16:38.314Z,20.02
2023-05-22T01:19:12.542Z,18.30
2023-05-22T01:21:46.363Z,18.08
2023-05-22T01:24:37.188Z,20.92
2023-05-22T01:27:25.932Z,17.92
2023-05-22T01:30:05.232Z,18.02
2023-05-22T01:32:36.055Z,20.50
2023-05-22T01:35:08.539Z,16.08
2023-05-22T01:37:37.417Z,16.08
2023-05-22T01:40:07.431Z,16.80
2023-05-22T01:42:35.372Z,18.10
2023-05-22T01:45:03.235Z,17.20
2023-05-22T01:47:31.457Z,15.97
2023-05-22T01:50:00.622Z,17.90
2023-05-22T01:52:34.501Z,16.38
2023-05-22T01:55:07.587Z,14.05
2023-05-22T01:57:39.255Z,17.67
2023-05-22T02:00:10.777Z,18.02
2023-05-22T02:02:39.977Z,14.63
2023-05-22T02:05:11.254Z,17.65
2023-05-22T02:07:39.637Z,16.27
2023-05-22T02:10:09.563Z,14.45
2023-05-22T02:12:37.649Z,18.50
2023-05-22T02:15:07.358Z,14.47
2023-05-22T02:17:40.259Z,17.10
2023-05-22T02:20:14.382Z,15.27
2023-05-22T02:22:43.770Z,17.27
2023-05-22T02:25:14.472Z,16.03
2023-05-22T02:27:43.204Z,14.95
2023-05-22T02:30:11.845Z,15.88
2023-05-22T02:32:40.213Z,17.10
2023-05-22T02:35:10.243Z,15.52
2023-05-22T02:37:37.999Z,14.98
2023-05-22T02:40:07.241Z,16.15
2023-05-22T02:42:35.354Z,17.73
2023-05-22T02:45:03.165Z,13.90
2023-05-22T02:47:31.025Z,17.70
2023-05-22T02:49:59.212Z,16.45
2023-05-22T02:52:28.379Z,15.67
2023-05-22T02:54:56.140Z,13.27
2023-05-22T02:57:23.867Z,16.17
2023-05-22T02:59:52.675Z,14.27
2023-05-22T03:02:20.491Z,16.52
2023-05-22T03:04:48.253Z,15.27
2023-05-22T03:07:15.947Z,17.85
2023-05-22T03:09:45.005Z,16.25
2023-05-22T03:12:12.642Z,20.52
2023-05-22T03:14:40.459Z,20.83
2023-05-22T03:17:08.119Z,16.73
2023-05-22T03:19:35.841Z,19.65
2023-05-22T03:22:03.900Z,17.27
2023-05-22T03:24:32.322Z,20.80
2023-05-22T03:27:11.656Z,14.70
2023-05-22T03:29:39.351Z,18.20
2023-05-22T03:32:07.442Z,16.98
2023-05-22T03:34:35.167Z,16.45
2023-05-22T03:37:02.863Z,13.82
2023-05-22T03:39:30.545Z,13.47
2023-05-22T03:42:00.704Z,10.68
2023-05-22T03:44:29.878Z,14.02
2023-05-22T03:46:57.552Z,12.10
2023-05-22T03:49:25.378Z,14.85
2023-05-22T03:51:53.043Z,12.73
2023-05-22T03:54:21.048Z,13.57
2023-05-22T03:56:48.768Z,12.00
2023-05-22T03:59:16.577Z,11.02
2023-05-22T04:01:46.546Z,12.50
2023-05-22T04:04:14.382Z,11.55
2023-05-22T04:06:43.918Z,15.05
2023-05-22T04:09:12.692Z,17.45
2023-05-22T04:11:42.174Z,14.80
2023-05-22T04:14:10.301Z,11.13
2023-05-22T04:16:37.979Z,13.80
2023-05-22T04:19:09.568Z,16.17
2023-05-22T04:21:38.294Z,11.98
2023-05-22T04:24:09.487Z,12.88
2023-05-22T04:26:37.305Z,14.97
2023-05-22T04:29:10.274Z,10.48
2023-05-22T04:31:38.269Z,16.17
2023-05-22T04:34:07.558Z,10.60
2023-05-22T04:36:35.956Z,10.85
2023-05-22T04:39:04.058Z,11.13
2023-05-22T04:41:32.447Z,12.43
2023-05-22T04:44:00.524Z,15.93
2023-05-22T04:46:28.831Z,16.70
2023-05-22T04:48:56.573Z,10.70
2023-05-22T04:51:25.621Z,10.80
2023-05-22T04:53:55.643Z,12.93
2023-05-22T04:56:35.528Z,13.85
2023-05-22T04:59:09.068Z,14.45
2023-05-22T05:01:37.998Z,11.70
2023-05-22T05:04:29.390Z,11.90
2023-05-22T05:06:58.655Z,9.57
2023-05-22T05:09:26.422Z,12.45
2023-05-22T05:11:54.337Z,14.57
2023-05-22T05:14:22.275Z,13.88
2023-05-22T05:16:51.726Z,21.70
2023-05-22T05:19:21.444Z,12.85
2023-05-22T05:21:49.655Z,13.98
2023-05-22T05:24:19.012Z,13.82
2023-05-22T05:26:47.001Z,16.63
2023-05-22T05:29:14.668Z,14.50
2023-05-22T05:31:42.595Z,14.82
2023-05-22T05:34:10.315Z,13.57
2023-05-22T05:36:38.098Z,13.70
2023-05-22T05:39:06.131Z,14.30
2023-05-22T05:41:35.378Z,13.40
2023-05-22T05:44:03.057Z,14.95
2023-05-22T05:46:30.780Z,17.48
2023-05-22T05:48:59.327Z,16.87
2023-05-22T05:51:27.083Z,15.32
2023-05-22T05:53:54.698Z,16.88
2023-05-22T05:56:22.675Z,17.38
2023-05-22T05:59:22.908Z,17.52
2023-05-22T06:01:50.623Z,19.60
2023-05-22T06:04:18.275Z,19.42
2023-05-22T06:06:47.715Z,15.50
2023-05-22T06:09:15.393Z,15.27
2023-05-22T06:11:43.046Z,16.15
2023-05-22T06:14:11.064Z,15.55
2023-05-22T06:16:40.722Z,22.40
2023-05-22T06:19:08.731Z,17.50
2023-05-22T06:21:36.455Z,18.55
2023-05-22T06:24:04.142Z,15.70
2023-05-22T06:26:31.805Z,17.87
2023-05-22T06:28:59.428Z,17.13
2023-05-22T06:31:28.092Z,20.83
2023-05-22T06:33:57.313Z,20.23
2023-05-22T06:36:24.991Z,18.70
2023-05-22T06:38:54.645Z,18.20
2023-05-22T06:41:22.837Z,18.20
2023-05-22T06:43:50.637Z,19.52
2023-05-22T06:46:18.334Z,21.65
2023-05-22T06:48:46.063Z,15.70
2023-05-22T06:51:15.293Z,21.13
2023-05-22T06:53:43.022Z,18.75
2023-05-22T06:56:10.797Z,17.40
2023-05-22T06:58:52.458Z,23.10
2023-05-22T07:01:20.246Z,19.45
2023-05-22T07:03:47.948Z,17.13
2023-05-22T07:06:18.296Z,17.98
2023-05-22T07:08:46.291Z,18.40
2023-05-22T07:11:14.016Z,17.42
2023-05-22T07:13:41.746Z,17.27
2023-05-22T07:16:09.497Z,16.70
2023-05-22T07:18:37.206Z,18.33
2023-05-22T07:21:05.444Z,20.55
2023-05-22T07:23:34.658Z,20.50
2023-05-22T07:26:02.338Z,16.83
2023-05-22T07:28:30.628Z,18.15
2023-05-22T07:30:58.346Z,18.25
2023-05-22T07:33:26.792Z,18.08
2023-05-22T07:35:54.479Z,20.67
2023-05-22T07:38:22.365Z,20.98
2023-05-22T07:40:51.504Z,21.38
2023-05-22T07:43:19.213Z,19.80
2023-05-22T07:45:46.856Z,19.67
2023-05-22T07:48:14.685Z,18.50
2023-05-22T07:50:44.844Z,21.45
2023-05-22T07:53:12.780Z,19.73
2023-05-22T07:55:41.030Z,25.08
2023-05-22T07:58:10.846Z,18.88
2023-05-22T08:00:38.594Z,17.10
2023-05-22T08:03:06.727Z,20.45
2023-05-22T08:05:34.494Z,22.75
2023-05-22T08:08:03.251Z,23.60
2023-05-22T08:10:46.426Z,20.55
2023-05-22T08:13:20.716Z,20.70
2023-05-22T08:15:48.357Z,25.23
2023-05-22T08:18:16.083Z,22.93
2023-05-22T08:20:43.743Z,20.88
2023-05-22T08:23:11.486Z,20.48
2023-05-22T08:25:39.189Z,19.60
2023-05-22T08:28:07.535Z,23.15
2023-05-22T08:30:37.356Z,21.30
2023-05-22T08:33:05.642Z,21.80
2023-05-22T08:35:33.447Z,22.95
2023-05-22T08:38:01.375Z,20.43
2023-05-22T08:40:35.612Z,21.08
2023-05-22T08:43:03.404Z,22.00
2023-05-22T08:45:34.139Z,20.92
2023-05-22T08:48:06.447Z,23.67
2023-05-22T08:50:36.907Z,21.03
2023-05-22T08:53:06.625Z,18.97
2023-05-22T08:55:34.735Z,20.08
2023-05-22T08:58:02.489Z,20.80
2023-05-22T09:00:30.429Z,22.65
2023-05-22T09:02:58.794Z,17.75
2023-05-22T09:05:28.134Z,21.23
2023-05-22T09:07:58.423Z,19.75
2023-05-22T09:10:30.811Z,18.27
2023-05-22T09:13:04.274Z,20.10
2023-05-22T09:15:33.064Z,23.52
2023-05-22T09:18:00.797Z,22.40
2023-05-22T09:20:29.901Z,26.43
2023-05-22T09:22:57.984Z,21.33
2023-05-22T09:25:26.516Z,25.05
2023-05-22T09:27:54.675Z,28.15
2023-05-22T09:30:22.382Z,23.33
2023-05-22T09:32:50.403Z,20.98
2023-05-22T09:35:19.733Z,19.97
2023-05-22T09:37:51.086Z,23.33
2023-05-22T09:40:18.804Z,22.23
2023-05-22T09:42:46.701Z,22.63
2023-05-22T09:45:14.505Z,21.45
2023-05-22T09:47:42.302Z,19.37
2023-05-22T09:50:10.844Z,20.60
2023-05-22T09:52:39.092Z,21.98
2023-05-22T09:55:09.688Z,25.52
2023-05-22T09:57:43.647Z,26.15
2023-05-22T10:00:15.191Z,22.83
2023-05-22T10:02:46.061Z,26.80
2023-05-22T10:05:21.174Z,25.48
2023-05-22T10:07:51.792Z,24.55
2023-05-22T10:10:22.776Z,28.08
2023-05-22T10:12:53.964Z,26.95
2023-05-22T10:15:22.254Z,26.65
2023-05-22T10:17:50.832Z,24.33
2023-05-22T10:20:18.601Z,25.33
2023-05-22T10:22:48.866Z,28.97
2023-05-22T10:25:18.246Z,25.73
2023-05-22T10:27:47.603Z,24.93
2023-05-22T10:30:21.382Z,22.48
2023-05-22T10:32:53.755Z,28.08
2023-05-22T10:35:23.992Z,25.92
2023-05-22T10:37:54.306Z,25.17
2023-05-22T10:40:29.076Z,24.33
2023-05-22T10:43:02.722Z,26.83
2023-05-22T10:45:31.664Z,28.10
2023-05-22T10:48:06.814Z,29.17
2023-05-22T10:50:34.788Z,23.67
2023-05-22T10:56:38.901Z,30.95
2023-05-22T10:59:08.607Z,29.00
2023-05-22T11:01:37.714Z,26.50
2023-05-22T11:04:12.896Z,26.58
2023-05-22T11:06:42.647Z,26.70
2023-05-22T11:09:18.949Z,23.52
2023-05-22T11:11:46.956Z,27.83
2023-05-22T11:14:17.688Z,25.75
2023-05-22T11:16:45.589Z,23.45
2023-05-22T11:19:23.217Z,26.10
2023-05-22T11:21:51.954Z,23.02
2023-05-22T11:24:20.074Z,24.25
2023-05-22T11:27:02.873Z,22.67
2023-05-22T11:29:32.301Z,24.38
2023-05-22T11:32:00.883Z,19.10
2023-05-22T11:34:28.954Z,20.13
2023-05-22T11:36:59.432Z,21.05
2023-05-22T11:39:27.278Z,23.83
2023-05-22T11:41:55.197Z,23.63
2023-05-22T11:44:22.878Z,21.27
2023-05-22T11:46:52.122Z,18.67
2023-05-22T11:49:23.961Z,19.58
2023-05-22T11:51:52.979Z,17.38
2023-05-22T11:54:22.196Z,20.30
2023-05-22T11:56:49.906Z,22.00
2023-05-22T11:59:17.641Z,23.87
2023-05-22T12:01:45.428Z,25.27
2023-05-22T12:04:15.743Z,21.92
2023-05-22T12:06:43.689Z,20.50
2023-05-22T12:09:11.637Z,26.07
2023-05-22T12:11:39.472Z,23.30
2023-05-22T12:14:07.555Z,17.25
2023-05-22T12:16:36.457Z,21.63
2023-05-22T12:19:07.800Z,19.27
2023-05-22T12:21:37.620Z,19.42
2023-05-22T12:24:06.192Z,21.73
2023-05-22T12:26:34.239Z,24.23
2023-05-22T12:29:02.708Z,19.48
2023-05-22T12:31:35.910Z,17.45
2023-05-22T12:34:07.589Z,17.80
2023-05-22T12:36:40.221Z,18.10
2023-05-22T12:39:12.463Z,20.85
2023-05-22T12:41:40.247Z,18.25
2023-05-22T12:44:07.930Z,18.58
2023-05-22T12:46:36.075Z,25.55
2023-05-22T12:49:03.870Z,17.27
2023-05-22T12:51:33.232Z,15.75
2023-05-22T12:54:02.790Z,19.25
2023-05-22T12:56:30.676Z,16.63
2023-05-22T12:58:58.538Z,16.00
2023-05-22T13:01:27.284Z,16.55
2023-05-22T13:03:55.119Z,14.85
2023-05-22T13:06:22.842Z,13.60
2023-05-22T13:08:50.530Z,14.38
2023-05-22T13:11:23.427Z,12.73
2023-05-22T13:13:51.204Z,14.13
2023-05-22T13:16:19.129Z,14.13
2023-05-22T13:18:47.268Z,10.73
2023-05-22T13:21:15.285Z,45.55
2023-05-22T13:23:43.326Z,15.57
2023-05-22T13:26:11.069Z,12.70
2023-05-22T13:28:40.209Z,13.30
2023-05-22T13:31:08.268Z,12.90
2023-05-22T13:33:36.040Z,12.15
2023-05-22T13:36:03.755Z,10.27
2023-05-22T13:38:31.459Z,10.98
2023-05-22T13:40:59.252Z,13.48
2023-05-22T13:43:27.140Z,9.80
2023-05-22T13:45:56.461Z,11.77
2023-05-22T13:48:24.146Z,8.82
2023-05-22T13:50:52.417Z,11.07
2023-05-22T13:53:20.228Z,8.65
2023-05-22T13:55:47.904Z,11.43
2023-05-22T13:58:15.636Z,12.90
2023-05-22T14:00:43.408Z,13.02
2023-05-22T14:03:17.422Z,11.98
2023-05-22T14:05:45.728Z,13.40
2023-05-22T14:08:13.713Z,12.50
2023-05-22T14:10:42.105Z,8.13
2023-05-22T14:13:09.847Z,10.30
2023-05-22T14:15:37.616Z,13.65
2023-05-22T14:18:05.495Z,10.23
2023-05-22T14:20:34.670Z,10.95
2023-05-22T14:23:02.342Z,9.93
2023-05-22T14:25:30.035Z,20.45
2023-05-22T14:27:57.869Z,13.75
2023-05-22T14:30:25.786Z,14.80
2023-05-22T14:32:53.632Z,13.75
2023-05-22T14:35:21.447Z,12.47
2023-05-22T14:37:50.814Z,13.07
2023-05-22T14:40:18.613Z,13.30
2023-05-22T14:42:46.619Z,13.73
2023-05-22T14:45:14.431Z,13.35
2023-05-22T14:47:43.195Z,13.52
2023-05-22T14:50:18.974Z,11.75
2023-05-22T14:52:47.925Z,12.38
2023-05-22T14:55:17.543Z,13.88
2023-05-22T14:57:45.486Z,13.52
2023-05-22T15:00:14.356Z,15.98
2023-05-22T15:02:42.131Z,12.43
2023-05-22T15:05:11.351Z,11.17
2023-05-22T15:07:44.586Z,14.35
2023-05-22T15:10:14.379Z,12.23
2023-05-22T15:12:43.483Z,13.18
2023-05-22T15:15:12.085Z,11.90
2023-05-22T15:17:42.694Z,9.55
2023-05-22T15:20:11.671Z,10.02
2023-05-22T15:22:39.418Z,11.95
2023-05-22T15:25:08.436Z,12.73
2023-05-22T15:27:36.761Z,11.60
2023-05-22T15:30:09.539Z,15.68
2023-05-22T15:32:37.547Z,12.60
2023-05-22T15:35:06.676Z,11.88
2023-05-22T15:37:36.336Z,19.15
2023-05-22T15:40:05.835Z,12.18
2023-05-22T15:42:34.994Z,13.13
2023-05-22T15:45:02.750Z,11.52
2023-05-22T15:47:31.926Z,13.00
2023-05-22T15:50:00.130Z,11.68
2023-05-22T15:52:27.920Z,11.52
2023-05-22T15:54:57.077Z,12.87
2023-05-22T15:57:25.073Z,15.30
2023-05-22T15:59:52.771Z,12.93
2023-05-22T16:02:20.504Z,13.43
2023-05-22T16:04:51.321Z,15.88
2023-05-22T16:07:20.263Z,15.60
2023-05-22T16:09:50.096Z,15.02
2023-05-22T16:12:18.191Z,18.58
2023-05-22T16:14:45.980Z,16.13
2023-05-22T16:17:13.737Z,15.07
2023-05-22T16:19:41.443Z,14.40
2023-05-22T16:22:10.624Z,17.33
2023-05-22T16:24:38.411Z,15.00
2023-05-22T16:27:07.360Z,13.67
2023-05-22T16:29:35.098Z,17.85
2023-05-22T16:32:03.728Z,17.48
2023-05-22T16:34:33.839Z,16.23
2023-05-22T16:37:01.899Z,18.42
2023-05-22T16:39:31.034Z,20.58
2023-05-22T16:41:58.758Z,15.70
2023-05-22T16:44:26.557Z,16.77
2023-05-22T16:46:54.290Z,34.70
2023-05-22T16:49:22.008Z,25.25
2023-05-22T16:51:49.697Z,21.92
2023-05-22T16:54:17.473Z,19.42
2023-05-22T16:56:46.589Z,17.25
2023-05-22T16:59:14.286Z,12.45
2023-05-22T17:01:42.361Z,27.23
2023-05-22T17:04:11.257Z,12.02
2023-05-22T17:06:39.604Z,12.63
2023-05-22T17:09:08.113Z,11.77
2023-05-22T17:11:35.990Z,16.05
2023-05-22T17:14:05.376Z,14.50
2023-05-22T17:16:33.467Z,15.23
2023-05-22T17:19:01.876Z,16.58
2023-05-22T17:21:30.769Z,16.33
2023-05-22T17:23:58.596Z,17.60
2023-05-22T17:26:27.437Z,22.33
2023-05-22T17:28:55.093Z,18.53
2023-05-22T17:31:24.171Z,19.10
2023-05-22T17:33:51.874Z,20.55
2023-05-22T17:36:20.038Z,22.30
2023-05-22T17:38:47.693Z,26.67
2023-05-22T17:41:15.545Z,29.95
2023-05-22T17:43:43.229Z,27.63
2023-05-22T17:46:10.979Z,33.17
2023-05-22T17:48:40.989Z,25.23
2023-05-22T17:51:08.691Z,29.83
2023-05-22T17:53:38.520Z,24.40
2023-05-22T17:58:52.614Z,28.20
2023-05-22T18:01:20.560Z,29.85
2023-05-22T18:03:49.843Z,27.60
2023-05-22T18:06:17.639Z,24.63
2023-05-22T18:08:45.558Z,25.90
2023-05-22T18:11:13.240Z,23.98
2023-05-22T18:13:40.908Z,27.63
2023-05-22T18:16:08.859Z,27.63
2023-05-22T18:18:36.712Z,26.97
2023-05-22T18:21:06.593Z,29.05
2023-05-22T18:23:34.337Z,27.47
2023-05-22T18:26:03.343Z,27.92
2023-05-22T18:28:31.011Z,24.63
2023-05-22T18:31:00.361Z,27.45
2023-05-22T18:33:28.478Z,24.70
2023-05-22T18:35:57.294Z,19.43
2023-05-22T18:38:27.215Z,13.38
2023-05-22T18:40:55.675Z,19.23
2023-05-22T18:43:27.765Z,11.98
2023-05-22T18:45:56.839Z,12.88
2023-05-22T18:48:24.915Z,15.82
2023-05-22T18:50:52.833Z,9.55
2023-05-22T18:53:20.573Z,11.45
2023-05-22T18:55:49.858Z,10.88
2023-05-22T18:58:17.547Z,9.77
2023-05-22T19:00:45.662Z,10.32
2023-05-22T19:03:14.062Z,11.73
2023-05-22T19:05:41.822Z,9.23
2023-05-22T19:08:09.625Z,10.80
2023-05-22T19:10:37.397Z,10.43
2023-05-22T19:13:06.550Z,11.52
2023-05-22T19:15:35.820Z,11.38
2023-05-22T19:18:03.612Z,12.70
2023-05-22T19:20:31.350Z,8.75
2023-05-22T19:22:59.147Z,10.13
2023-05-22T19:25:27.009Z,13.18
2023-05-22T19:27:54.721Z,9.05
2023-05-22T19:30:24.431Z,10.68
2023-05-22T19:32:55.632Z,8.98
2023-05-22T19:35:23.488Z,8.77
2023-05-22T19:37:51.164Z,9.50
2023-05-22T19:40:18.946Z,9.57
2023-05-22T19:42:46.665Z,10.45
2023-05-22T19:45:14.410Z,7.93
2023-05-22T19:47:43.585Z,11.43
2023-05-22T19:50:12.395Z,9.25
2023-05-22T19:52:40.201Z,11.48
2023-05-22T19:55:09.478Z,11.73
2023-05-22T19:57:37.202Z,10.83
2023-05-22T20:00:07.475Z,8.88
2023-05-22T20:02:35.212Z,9.70
2023-05-22T20:05:04.488Z,7.50
2023-05-22T20:07:32.410Z,10.18
2023-05-22T20:10:00.135Z,9.32
2023-05-22T20:12:27.831Z,6.75
2023-05-22T20:14:55.788Z,8.43
2023-05-22T20:17:23.557Z,7.15
2023-05-22T20:19:51.266Z,9.32
2023-05-22T20:22:20.405Z,8.45
2023-05-22T20:24:48.433Z,8.30
2023-05-22T20:27:31.133Z,10.77
2023-05-22T20:30:00.223Z,9.10
2023-05-22T20:32:28.429Z,8.02
2023-05-22T20:34:56.269Z,9.70
2023-05-22T20:37:26.443Z,9.18
2023-05-22T20:39:54.484Z,11.38
2023-05-22T20:42:22.391Z,8.07
2023-05-22T20:44:50.213Z,8.40
2023-05-22T20:47:17.854Z,9.00
2023-05-22T20:49:45.510Z,7.72
2023-05-22T20:52:13.337Z,8.48
2023-05-22T20:54:42.990Z,7.95
2023-05-22T20:57:10.655Z,7.20
2023-05-22T20:59:38.546Z,6.72
2023-05-22T21:02:07.305Z,8.20
2023-05-22T21:04:35.109Z,8.32
2023-05-22T21:07:03.315Z,8.38
2023-05-22T21:09:31.077Z,6.90
2023-05-22T21:12:00.163Z,6.37
2023-05-22T21:14:27.861Z,6.72
2023-05-22T21:16:55.782Z,6.20
2023-05-22T21:19:23.528Z,7.93
2023-05-22T21:21:51.195Z,7.93
2023-05-22T21:24:18.936Z,12.02
2023-05-22T21:26:46.640Z,6.30
2023-05-22T21:29:15.754Z,8.45
2023-05-22T21:31:43.447Z,10.82
2023-05-22T21:34:11.127Z,8.48
2023-05-22T21:36:38.803Z,9.77
2023-05-22T21:39:06.511Z,13.32
2023-05-22T21:41:34.695Z,10.23
2023-05-22T21:44:02.434Z,9.10
2023-05-22T21:46:31.524Z,8.88
2023-05-22T21:48:59.895Z,10.53
2023-05-22T21:51:27.622Z,10.97
2023-05-22T21:53:55.333Z,9.88
2023-05-22T21:56:23.033Z,10.98
2023-05-22T21:58:50.814Z,8.40
2023-05-22T22:01:18.574Z,11.65
2023-05-22T22:03:47.742Z,10.77
2023-05-22T22:06:15.530Z,11.00
2023-05-22T22:08:43.199Z,9.43
2023-05-22T22:11:10.880Z,10.43
2023-05-22T22:13:38.552Z,12.10
2023-05-22T22:16:06.527Z,10.18
2023-05-22T22:18:34.559Z,8.40
2023-05-22T22:21:03.626Z,9.87
2023-05-22T22:23:34.410Z,9.05
2023-05-22T22:26:02.104Z,10.43
2023-05-22T22:28:29.752Z,10.40
2023-05-22T22:30:57.456Z,11.45
2023-05-22T22:33:25.124Z,12.52
2023-05-22T22:35:53.103Z,11.50
2023-05-22T22:38:22.379Z,11.82
2023-05-22T22:40:50.064Z,10.30
2023-05-22T22:43:17.719Z,12.80
2023-05-22T22:45:45.488Z,11.98
2023-05-22T22:48:13.334Z,12.18
2023-05-22T22:50:41.548Z,9.10
2023-05-22T22:53:09.615Z,11.80
2023-05-22T22:55:39.021Z,11.48
2023-05-22T22:58:07.842Z,13.93
2023-05-22T23:00:36.640Z,14.35
2023-05-22T23:03:04.527Z,11.23
2023-05-22T23:05:32.271Z,14.10
2023-05-22T23:08:01.958Z,14.02
2023-05-22T23:10:29.889Z,16.08
2023-05-22T23:12:59.237Z,13.13
2023-05-22T23:15:27.059Z,15.20
2023-05-22T23:17:54.759Z,13.90
2023-05-22T23:20:22.443Z,12.02
2023-05-22T23:22:50.127Z,13.82
2023-05-22T23:25:17.800Z,15.50
2023-05-22T23:27:45.672Z,10.85
2023-05-22T23:30:15.031Z,14.00
2023-05-22T23:32:42.731Z,14.25
2023-05-22T23:35:11.247Z,14.95
2023-05-22T23:37:38.906Z,13.85
2023-05-22T23:40:08.831Z,15.70
2023-05-22T23:42:37.412Z,10.32
2023-05-22T23:45:05.642Z,13.30
2023-05-22T23:47:34.719Z,11.73
2023-05-22T23:50:02.416Z,9.15
2023-05-22T23:52:30.090Z,13.35
2023-05-22T23:54:57.950Z,9.35
2023-05-22T23:57:25.683Z,7.32
2023-05-22T23:59:53.371Z,8.02
